createdAt,value
2017-12-29T00:00:11.222Z,-2.83
2017-12-29T00:02:38.745Z,-3.10
2017-12-29T00:05:06.274Z,-3.16
2017-12-29T00:07:33.812Z,-3.17
2017-12-29T00:10:01.335Z,-3.20
2017-12-29T00:12:28.860Z,-3.03
2017-12-29T00:14:56.400Z,-3.07
2017-12-29T00:17:23.930Z,-2.91
2017-12-29T00:19:51.473Z,-2.82
2017-12-29T00:22:19.003Z,-2.60
2017-12-29T00:24:46.517Z,-2.73
2017-12-29T00:27:14.041Z,-2.84
2017-12-29T00:29:41.552Z,-2.94
2017-12-29T00:32:09.081Z,-2.56
2017-12-29T00:34:36.585Z,-2.97
2017-12-29T00:37:04.141Z,-3.26
2017-12-29T00:39:31.647Z,-3.34
2017-12-29T00:41:59.175Z,-3.42
2017-12-29T00:44:26.720Z,-3.09
2017-12-29T00:46:54.279Z,-2.78
2017-12-29T00:49:21.836Z,-2.87
2017-12-29T00:51:49.356Z,-2.64
2017-12-29T00:54:16.870Z,-2.96
2017-12-29T00:56:44.410Z,-2.75
2017-12-29T00:59:11.930Z,-2.83
2017-12-29T01:01:39.449Z,-2.67
2017-12-29T01:04:06.965Z,-3.07
2017-12-29T01:06:34.480Z,-2.95
2017-12-29T01:09:02.010Z,-3.07
2017-12-29T01:11:29.511Z,-3.22
2017-12-29T01:13:57.037Z,-2.99
2017-12-29T01:16:24.570Z,-2.83
2017-12-29T01:18:52.086Z,-2.92
2017-12-29T01:21:19.595Z,-2.81
2017-12-29T01:23:47.125Z,-2.66
2017-12-29T01:26:14.666Z,-2.36
2017-12-29T01:28:42.195Z,-2.36
2017-12-29T01:31:09.731Z,-2.27
2017-12-29T01:33:37.254Z,-1.99
2017-12-29T01:36:04.789Z,-1.87
2017-12-29T01:38:32.325Z,-1.69
2017-12-29T01:40:59.850Z,-1.61
2017-12-29T01:43:27.390Z,-1.29
2017-12-29T01:45:54.916Z,-1.01
2017-12-29T01:48:22.446Z,-1.12
2017-12-29T01:50:49.977Z,-1.02
2017-12-29T01:53:17.526Z,-0.90
2017-12-29T01:55:45.040Z,-1.05
2017-12-29T01:58:12.692Z,-0.96
2017-12-29T02:00:40.370Z,-0.90
2017-12-29T02:03:07.891Z,-0.81
2017-12-29T02:05:35.391Z,-1.11
2017-12-29T02:08:02.916Z,-1.29
2017-12-29T02:10:30.445Z,-1.03
2017-12-29T02:12:57.961Z,-0.87
2017-12-29T02:15:25.477Z,-0.69
2017-12-29T02:17:52.985Z,-0.67
2017-12-29T02:20:20.499Z,-0.52
2017-12-29T02:22:48.011Z,-0.63
2017-12-29T02:25:15.551Z,-0.49
2017-12-29T02:27:43.081Z,-0.32
2017-12-29T02:30:10.601Z,-0.34
2017-12-29T02:32:38.107Z,-0.52
2017-12-29T02:35:05.608Z,-0.74
2017-12-29T02:37:33.115Z,-0.48
2017-12-29T02:40:00.770Z,-0.87
2017-12-29T02:42:28.295Z,-0.73
2017-12-29T02:44:56.847Z,-0.74
2017-12-29T02:47:24.355Z,-0.67
2017-12-29T02:49:51.885Z,-0.37
2017-12-29T02:52:19.400Z,-0.72
2017-12-29T02:54:46.915Z,-0.72
2017-12-29T02:57:14.420Z,-0.60
2017-12-29T02:59:42.008Z,-0.70
2017-12-29T03:02:16.493Z,-0.58
2017-12-29T03:04:44.002Z,-0.79
2017-12-29T03:07:11.638Z,-0.66
2017-12-29T03:09:39.199Z,-0.66
2017-12-29T03:12:06.710Z,-0.67
2017-12-29T03:14:34.216Z,-0.78
2017-12-29T03:17:01.975Z,-0.87
2017-12-29T03:19:29.481Z,-0.45
2017-12-29T03:21:56.985Z,-0.53
2017-12-29T03:24:24.510Z,-0.42
2017-12-29T03:26:52.032Z,-0.42
2017-12-29T03:29:19.543Z,-0.54
2017-12-29T03:31:47.071Z,-0.98
2017-12-29T03:34:14.585Z,-1.22
2017-12-29T03:36:42.111Z,-1.35
2017-12-29T03:39:09.633Z,-1.46
2017-12-29T03:41:37.156Z,-1.55
2017-12-29T03:44:04.677Z,-1.72
2017-12-29T03:46:32.288Z,-1.69
2017-12-29T03:48:59.841Z,-1.91
2017-12-29T03:51:27.357Z,-1.99
2017-12-29T03:53:54.882Z,-2.24
2017-12-29T03:56:22.385Z,-2.10
2017-12-29T03:58:49.912Z,-2.22
2017-12-29T04:01:17.452Z,-1.78
2017-12-29T04:03:44.993Z,-1.61
2017-12-29T04:06:12.546Z,-1.81
2017-12-29T04:08:40.071Z,-1.63
2017-12-29T04:11:07.587Z,-1.76
2017-12-29T04:13:35.110Z,-2.02
2017-12-29T04:16:02.642Z,-1.59
2017-12-29T04:18:30.167Z,-1.46
2017-12-29T04:20:57.686Z,-1.61
2017-12-29T04:23:25.260Z,-1.71
2017-12-29T04:25:52.768Z,-1.72
2017-12-29T04:28:20.286Z,-2.18
2017-12-29T04:30:47.826Z,-2.20
2017-12-29T04:33:15.358Z,-1.96
2017-12-29T04:35:42.872Z,-2.19
2017-12-29T04:38:10.392Z,-2.22
2017-12-29T04:40:37.918Z,-2.37
2017-12-29T04:43:05.441Z,-2.43
2017-12-29T04:45:33.009Z,-2.47
2017-12-29T04:48:00.516Z,-2.33
2017-12-29T04:50:28.031Z,-2.45
2017-12-29T04:52:55.547Z,-2.29
2017-12-29T04:55:23.101Z,-2.83
2017-12-29T04:57:50.608Z,-2.95
2017-12-29T05:00:18.172Z,-2.86
2017-12-29T05:02:45.707Z,-2.36
2017-12-29T05:05:13.246Z,-2.52
2017-12-29T05:07:40.782Z,-2.16
2017-12-29T05:10:08.289Z,-3.09
2017-12-29T05:12:35.872Z,-3.21
2017-12-29T05:15:03.386Z,-3.21
2017-12-29T05:17:30.899Z,-3.02
2017-12-29T05:19:58.418Z,-2.78
2017-12-29T05:22:25.937Z,-3.22
2017-12-29T05:24:53.448Z,-3.35
2017-12-29T05:27:20.982Z,-3.74
2017-12-29T05:29:48.526Z,-3.68
2017-12-29T05:32:16.043Z,-3.37
2017-12-29T05:34:43.568Z,-3.29
2017-12-29T05:37:11.079Z,-3.52
2017-12-29T05:39:38.603Z,-3.13
2017-12-29T05:42:06.188Z,-3.01
2017-12-29T05:44:33.698Z,-3.48
2017-12-29T05:47:01.227Z,-4.14
2017-12-29T05:49:28.746Z,-4.40
2017-12-29T05:51:56.288Z,-4.27
2017-12-29T05:54:23.812Z,-3.91
2017-12-29T05:56:51.355Z,-3.38
2017-12-29T05:59:18.918Z,-3.80
2017-12-29T06:01:46.411Z,-3.49
2017-12-29T06:04:13.921Z,-3.18
2017-12-29T06:06:41.433Z,-3.59
2017-12-29T06:09:08.946Z,-3.38
2017-12-29T06:11:36.486Z,-3.27
2017-12-29T06:14:04.103Z,-4.23
2017-12-29T06:16:31.611Z,-4.26
2017-12-29T06:18:59.141Z,-4.37
2017-12-29T06:21:26.653Z,-4.22
2017-12-29T06:23:54.190Z,-3.79
2017-12-29T06:26:21.687Z,-3.73
2017-12-29T06:28:49.193Z,-3.67
2017-12-29T06:31:16.703Z,-3.68
2017-12-29T06:33:44.231Z,-4.09
2017-12-29T06:36:11.766Z,-4.01
2017-12-29T06:38:39.284Z,-4.08
2017-12-29T06:41:06.833Z,-3.93
2017-12-29T06:43:34.331Z,-3.71
2017-12-29T06:46:02.057Z,-3.76
2017-12-29T06:48:29.603Z,-3.81
2017-12-29T06:50:57.118Z,-3.66
2017-12-29T06:53:24.672Z,-3.58
2017-12-29T06:55:52.176Z,-3.30
2017-12-29T06:58:19.697Z,-3.50
2017-12-29T07:00:47.319Z,-3.64
2017-12-29T07:03:14.846Z,-4.20
2017-12-29T07:05:42.382Z,-3.99
2017-12-29T07:08:09.901Z,-3.68
2017-12-29T07:10:37.418Z,-3.81
2017-12-29T07:13:04.951Z,-3.74
2017-12-29T07:15:32.462Z,-3.52
2017-12-29T07:17:59.993Z,-3.60
2017-12-29T07:20:27.513Z,-3.95
2017-12-29T07:22:55.073Z,-4.03
2017-12-29T07:25:22.628Z,-4.06
2017-12-29T07:27:50.176Z,-4.13
2017-12-29T07:30:17.696Z,-3.94
2017-12-29T07:32:45.213Z,-3.93
2017-12-29T07:35:12.731Z,-3.76
2017-12-29T07:37:40.247Z,-3.54
2017-12-29T07:40:07.791Z,-3.93
2017-12-29T07:42:35.282Z,-3.87
2017-12-29T07:45:02.811Z,-3.69
2017-12-29T07:47:30.336Z,-3.95
2017-12-29T07:49:57.897Z,-3.94
2017-12-29T07:52:25.415Z,-3.69
2017-12-29T07:54:52.938Z,-3.88
2017-12-29T07:57:20.451Z,-3.67
2017-12-29T07:59:48.008Z,-3.63
2017-12-29T08:02:15.532Z,-3.49
2017-12-29T08:04:43.183Z,-3.76
2017-12-29T08:07:10.728Z,-3.90
2017-12-29T08:09:38.243Z,-3.72
2017-12-29T08:12:05.773Z,-3.69
2017-12-29T08:14:33.282Z,-3.24
2017-12-29T08:17:00.818Z,-2.89
2017-12-29T08:19:28.338Z,-2.49
2017-12-29T08:21:55.877Z,-2.15
2017-12-29T08:24:23.403Z,-2.08
2017-12-29T08:26:51.003Z,-2.10
2017-12-29T08:29:18.538Z,-1.59
2017-12-29T08:31:46.087Z,-1.36
2017-12-29T08:34:13.621Z,-0.74
2017-12-29T08:36:41.152Z,-0.65
2017-12-29T08:39:08.676Z,-0.63
2017-12-29T08:41:36.224Z,-0.30
2017-12-29T08:44:03.789Z,0.07
2017-12-29T08:46:31.323Z,-0.32
2017-12-29T08:48:58.880Z,0.06
2017-12-29T08:51:26.402Z,0.49
2017-12-29T08:53:54.028Z,0.70
2017-12-29T08:56:21.549Z,1.45
2017-12-29T08:58:49.063Z,1.67
2017-12-29T09:01:16.588Z,1.51
2017-12-29T09:03:44.089Z,1.91
2017-12-29T09:06:11.593Z,2.58
2017-12-29T09:08:39.131Z,2.94
2017-12-29T09:11:06.672Z,3.12
2017-12-29T09:13:34.213Z,3.56
2017-12-29T09:16:01.719Z,2.17
2017-12-29T09:18:29.227Z,2.40
2017-12-29T09:20:56.729Z,3.56
2017-12-29T09:23:24.248Z,4.36
2017-12-29T09:25:51.789Z,5.62
2017-12-29T09:28:19.318Z,6.06
2017-12-29T09:30:46.852Z,7.83
2017-12-29T09:33:14.382Z,8.57
2017-12-29T09:35:41.886Z,8.11
2017-12-29T09:38:09.429Z,9.68
2017-12-29T09:40:37.033Z,9.95
2017-12-29T09:43:04.581Z,8.51
2017-12-29T09:45:32.101Z,11.12
2017-12-29T09:47:59.638Z,13.08
2017-12-29T09:50:27.159Z,13.40
2017-12-29T09:52:54.684Z,9.90
2017-12-29T09:55:22.284Z,9.99
2017-12-29T09:57:49.803Z,10.14
2017-12-29T10:00:17.359Z,8.99
2017-12-29T10:02:44.888Z,7.57
2017-12-29T10:05:12.412Z,7.55
2017-12-29T10:07:40.028Z,7.22
2017-12-29T10:10:07.558Z,8.36
2017-12-29T10:12:35.066Z,9.82
2017-12-29T10:15:02.577Z,8.86
2017-12-29T10:17:30.110Z,11.46
2017-12-29T10:19:57.632Z,12.36
2017-12-29T10:22:25.158Z,11.79
2017-12-29T10:24:52.674Z,10.40
2017-12-29T10:27:20.188Z,9.29
2017-12-29T10:29:47.690Z,9.53
2017-12-29T10:32:15.270Z,9.26
2017-12-29T10:34:42.810Z,8.31
2017-12-29T10:37:10.353Z,10.06
2017-12-29T10:39:37.864Z,8.50
2017-12-29T10:42:05.373Z,8.99
2017-12-29T10:44:32.929Z,8.96
2017-12-29T10:47:00.462Z,10.82
2017-12-29T10:49:27.994Z,10.05
2017-12-29T10:51:55.507Z,7.75
2017-12-29T10:54:23.038Z,10.08
2017-12-29T10:56:50.557Z,11.16
2017-12-29T10:59:18.082Z,12.75
2017-12-29T11:01:45.662Z,9.59
2017-12-29T11:04:13.184Z,9.69
2017-12-29T11:06:40.744Z,10.73
2017-12-29T11:09:08.309Z,9.98
2017-12-29T11:11:35.825Z,9.81
2017-12-29T11:14:03.348Z,8.64
2017-12-29T11:16:30.888Z,6.38
2017-12-29T11:18:58.422Z,7.95
2017-12-29T11:21:26.982Z,8.32
2017-12-29T11:23:54.579Z,8.25
2017-12-29T11:26:22.087Z,7.64
2017-12-29T11:28:50.884Z,6.42
2017-12-29T11:31:18.410Z,8.77
2017-12-29T11:33:45.989Z,8.21
2017-12-29T11:36:13.504Z,8.59
2017-12-29T11:38:41.111Z,10.56
2017-12-29T12:02:22.339Z,11.86
2017-12-29T12:04:49.915Z,10.66
2017-12-29T12:07:17.452Z,9.26
2017-12-29T12:09:44.988Z,9.24
2017-12-29T12:12:12.558Z,9.84
2017-12-29T12:14:40.095Z,6.46
2017-12-29T12:17:07.630Z,6.23
2017-12-29T12:19:35.159Z,7.24
2017-12-29T12:22:02.674Z,6.53
2017-12-29T12:24:30.208Z,7.43
2017-12-29T12:26:57.770Z,6.30
2017-12-29T12:29:25.379Z,7.02
2017-12-29T12:31:52.899Z,5.88
2017-12-29T12:34:20.448Z,6.69
2017-12-29T12:36:47.990Z,6.26
2017-12-29T12:39:15.531Z,6.32
2017-12-29T12:41:43.060Z,7.07
2017-12-29T12:44:10.588Z,6.33
2017-12-29T12:46:38.123Z,6.93
2017-12-29T12:49:05.752Z,5.75
2017-12-29T12:51:33.274Z,6.12
2017-12-29T12:54:00.825Z,5.43
2017-12-29T12:56:28.365Z,4.99
2017-12-29T12:58:55.892Z,4.95
2017-12-29T13:01:23.440Z,4.88
2017-12-29T13:03:50.985Z,4.46
2017-12-29T13:06:18.549Z,4.73
2017-12-29T13:08:46.088Z,4.93
2017-12-29T13:11:13.633Z,4.47
2017-12-29T13:13:41.152Z,4.36
2017-12-29T13:16:08.770Z,4.00
2017-12-29T13:18:36.308Z,4.73
2017-12-29T13:21:03.848Z,4.31
2017-12-29T13:23:31.394Z,4.21
2017-12-29T13:25:58.930Z,4.55
2017-12-29T13:28:26.604Z,4.72
2017-12-29T13:30:54.208Z,4.56
2017-12-29T13:33:21.894Z,4.26
2017-12-29T13:35:49.448Z,4.56
2017-12-29T13:38:16.986Z,4.43
2017-12-29T13:40:44.516Z,4.15
2017-12-29T13:43:12.071Z,4.10
2017-12-29T13:45:39.630Z,4.54
2017-12-29T13:48:07.179Z,4.44
2017-12-29T13:50:34.715Z,3.88
2017-12-29T13:53:02.220Z,4.01
2017-12-29T13:55:29.755Z,4.10
2017-12-29T13:57:57.334Z,4.23
2017-12-29T14:00:24.871Z,3.91
2017-12-29T14:02:52.416Z,3.57
2017-12-29T14:05:19.939Z,3.67
2017-12-29T14:07:47.500Z,3.64
2017-12-29T14:10:15.046Z,3.72
2017-12-29T14:12:42.569Z,3.76
2017-12-29T14:15:10.111Z,3.30
2017-12-29T14:17:37.647Z,3.07
2017-12-29T14:20:05.193Z,3.32
2017-12-29T14:22:32.734Z,3.15
2017-12-29T14:25:00.364Z,3.07
2017-12-29T14:27:27.884Z,3.11
2017-12-29T14:29:55.502Z,3.12
2017-12-29T14:32:23.055Z,2.96
2017-12-29T14:34:50.620Z,2.89
2017-12-29T14:37:18.191Z,2.88
2017-12-29T14:39:45.719Z,2.60
2017-12-29T14:42:13.245Z,2.74
2017-12-29T14:44:40.773Z,2.78
2017-12-29T14:47:08.460Z,2.51
2017-12-29T14:49:36.115Z,2.35
2017-12-29T14:52:03.650Z,2.35
2017-12-29T14:54:31.183Z,2.53
2017-12-29T14:56:58.736Z,2.78
2017-12-29T14:59:26.278Z,2.44
2017-12-29T15:01:53.834Z,2.37
2017-12-29T15:04:21.378Z,2.50
2017-12-29T15:06:48.904Z,2.34
2017-12-29T15:09:16.468Z,2.34
2017-12-29T15:11:44.009Z,2.10
2017-12-29T15:14:11.570Z,2.33
2017-12-29T15:16:39.133Z,2.52
2017-12-29T15:19:06.659Z,2.32
2017-12-29T15:21:34.314Z,2.20
2017-12-29T15:24:01.870Z,2.32
2017-12-29T15:26:29.567Z,2.40
2017-12-29T15:28:57.095Z,2.45
2017-12-29T15:31:24.613Z,2.51
2017-12-29T15:33:52.155Z,2.15
2017-12-29T15:36:19.689Z,2.32
2017-12-29T15:38:47.226Z,2.27
2017-12-29T15:41:14.780Z,2.47
2017-12-29T15:43:42.360Z,2.34
2017-12-29T15:46:09.905Z,2.25
2017-12-29T15:48:37.445Z,2.42
2017-12-29T15:51:05.010Z,2.64
2017-12-29T15:53:32.545Z,2.54
2017-12-29T15:56:00.079Z,2.25
2017-12-29T15:58:27.620Z,2.15
2017-12-29T16:00:58.028Z,2.42
2017-12-29T16:03:25.575Z,2.61
2017-12-29T16:05:53.100Z,2.44
2017-12-29T16:08:20.632Z,2.37
2017-12-29T16:10:48.209Z,2.42
2017-12-29T16:13:15.755Z,2.16
2017-12-29T16:15:43.300Z,2.27
2017-12-29T16:18:10.863Z,2.15
2017-12-29T16:20:38.451Z,2.40
2017-12-29T16:23:05.964Z,2.39
2017-12-29T16:25:33.529Z,2.27
2017-12-29T16:28:01.085Z,2.31
2017-12-29T16:30:28.611Z,2.03
2017-12-29T16:32:56.149Z,2.13
2017-12-29T16:35:23.728Z,2.28
2017-12-29T16:37:51.245Z,2.06
2017-12-29T16:40:18.811Z,2.29
2017-12-29T16:42:46.375Z,2.31
2017-12-29T16:45:13.920Z,2.18
2017-12-29T16:47:41.461Z,2.17
2017-12-29T16:50:09.000Z,2.31
2017-12-29T16:52:36.551Z,2.39
2017-12-29T16:55:04.088Z,2.17
2017-12-29T16:57:31.618Z,2.32
2017-12-29T16:59:59.191Z,2.43
2017-12-29T17:02:26.758Z,2.62
2017-12-29T17:04:54.295Z,2.35
2017-12-29T17:07:21.819Z,2.41
2017-12-29T17:09:49.347Z,2.49
2017-12-29T17:12:16.904Z,2.24
2017-12-29T17:14:44.425Z,2.03
2017-12-29T17:17:11.966Z,1.90
2017-12-29T17:19:39.520Z,1.96
2017-12-29T17:22:07.106Z,1.76
2017-12-29T17:24:34.655Z,1.66
2017-12-29T17:27:02.180Z,1.71
2017-12-29T17:29:29.736Z,1.73
2017-12-29T17:31:57.259Z,1.67
2017-12-29T17:34:24.822Z,1.71
2017-12-29T17:36:52.354Z,1.49
2017-12-29T17:39:19.907Z,1.70
2017-12-29T17:41:47.445Z,1.63
2017-12-29T17:44:15.001Z,1.53
2017-12-29T17:46:42.539Z,1.62
2017-12-29T17:49:10.054Z,1.47
2017-12-29T17:51:37.561Z,1.63
2017-12-29T17:54:05.115Z,1.69
2017-12-29T17:56:32.635Z,1.82
2017-12-29T17:59:00.184Z,1.75
2017-12-29T18:01:27.722Z,1.90
2017-12-29T18:03:55.265Z,1.84
2017-12-29T18:06:22.799Z,1.68
2017-12-29T18:08:50.336Z,1.78
2017-12-29T18:11:17.850Z,1.42
2017-12-29T18:13:45.390Z,1.02
2017-12-29T18:16:12.950Z,0.88
2017-12-29T18:18:40.480Z,1.18
2017-12-29T18:21:08.040Z,1.19
2017-12-29T18:23:35.581Z,1.14
2017-12-29T18:26:03.131Z,1.20
2017-12-29T18:28:30.694Z,1.23
2017-12-29T18:30:58.204Z,1.20
2017-12-29T18:33:25.853Z,1.34
2017-12-29T18:35:53.979Z,1.31
2017-12-29T18:38:21.566Z,1.39
2017-12-29T18:40:49.101Z,1.68
2017-12-29T18:43:18.675Z,1.50
2017-12-29T18:45:46.237Z,1.21
2017-12-29T18:48:13.782Z,1.36
2017-12-29T18:50:41.331Z,1.22
2017-12-29T18:53:08.896Z,0.93
2017-12-29T18:55:36.434Z,1.21
2017-12-29T18:58:03.971Z,1.16
2017-12-29T19:00:31.536Z,1.05
2017-12-29T19:02:59.225Z,1.22
2017-12-29T19:05:26.754Z,1.26
2017-12-29T19:07:54.318Z,1.06
2017-12-29T19:10:21.891Z,1.16
2017-12-29T19:12:49.505Z,1.00
2017-12-29T19:15:17.395Z,0.99
2017-12-29T19:17:44.941Z,0.49
2017-12-29T19:20:13.090Z,0.75
2017-12-29T19:22:40.698Z,0.85
2017-12-29T19:25:08.239Z,0.80
2017-12-29T19:27:35.846Z,0.82
2017-12-29T19:30:03.491Z,0.65
2017-12-29T19:32:31.080Z,0.69
2017-12-29T19:34:58.712Z,0.91
2017-12-29T19:37:26.280Z,0.99
2017-12-29T19:39:53.819Z,0.83
2017-12-29T19:42:21.470Z,0.65
2017-12-29T19:44:49.074Z,0.65
2017-12-29T19:47:16.636Z,0.85
2017-12-29T19:49:44.339Z,0.93
2017-12-29T19:52:11.986Z,0.90
2017-12-29T19:54:39.512Z,0.73
2017-12-29T19:57:07.126Z,0.64
2017-12-29T19:59:34.775Z,0.87
2017-12-29T20:02:02.615Z,0.98
2017-12-29T20:04:30.231Z,0.75
2017-12-29T20:06:57.766Z,0.71
2017-12-29T20:09:25.451Z,0.65
2017-12-29T20:11:53.163Z,0.71
2017-12-29T20:14:20.796Z,0.56
2017-12-29T20:16:48.402Z,0.73
2017-12-29T20:19:16.027Z,1.09
2017-12-29T20:21:43.631Z,1.16
2017-12-29T20:24:11.859Z,1.13
2017-12-29T20:26:39.831Z,1.11
2017-12-29T20:29:07.607Z,1.33
2017-12-29T20:31:35.270Z,1.30
2017-12-29T20:34:02.896Z,1.43
2017-12-29T20:36:31.318Z,1.53
2017-12-29T20:38:58.957Z,1.42
2017-12-29T20:41:26.681Z,1.16
2017-12-29T20:43:55.036Z,1.06
2017-12-29T20:46:23.273Z,1.38
2017-12-29T20:48:51.161Z,1.65
2017-12-29T20:51:19.240Z,1.40
2017-12-29T20:53:46.926Z,1.54
2017-12-29T20:56:16.010Z,1.65
2017-12-29T20:58:44.699Z,1.58
2017-12-29T21:01:12.972Z,1.48
2017-12-29T21:03:40.990Z,1.60
2017-12-29T21:06:09.165Z,1.33
2017-12-29T21:08:36.870Z,1.45
2017-12-29T21:11:04.477Z,1.42
2017-12-29T21:13:32.261Z,1.48
2017-12-29T21:15:59.934Z,1.50
2017-12-29T21:18:27.565Z,1.57
2017-12-29T21:20:55.301Z,1.57
2017-12-29T21:23:23.296Z,1.74
2017-12-29T21:25:51.719Z,1.76
2017-12-29T21:28:19.972Z,1.84
2017-12-29T21:30:47.577Z,1.91
2017-12-29T21:33:15.296Z,1.88
2017-12-29T21:35:43.202Z,1.87
2017-12-29T21:38:10.980Z,1.84
2017-12-29T21:40:38.571Z,2.04
2017-12-29T21:43:06.187Z,1.92
2017-12-29T21:45:33.731Z,1.86
2017-12-29T21:48:01.294Z,1.94
2017-12-29T21:50:28.937Z,2.00
2017-12-29T21:52:56.487Z,2.14
2017-12-29T21:55:24.031Z,2.14
2017-12-29T21:57:51.601Z,2.17
2017-12-29T22:00:19.151Z,2.01
2017-12-29T22:02:46.684Z,1.99
2017-12-29T22:05:14.230Z,2.08
2017-12-29T22:07:41.771Z,2.09
2017-12-29T22:10:09.306Z,2.00
2017-12-29T22:12:36.865Z,1.97
2017-12-29T22:15:04.431Z,1.99
2017-12-29T22:17:31.954Z,2.01
2017-12-29T22:19:59.516Z,1.88
2017-12-29T22:22:27.095Z,2.06
2017-12-29T22:24:54.668Z,2.05
2017-12-29T22:27:22.207Z,2.16
2017-12-29T22:29:49.790Z,2.10
2017-12-29T22:32:17.372Z,2.17
2017-12-29T22:34:44.948Z,2.16
2017-12-29T22:37:12.526Z,2.30
2017-12-29T22:39:40.062Z,2.25
2017-12-29T22:42:07.603Z,2.26
2017-12-29T22:44:35.181Z,2.20
2017-12-29T22:47:02.722Z,2.17
2017-12-29T22:49:30.277Z,2.29
2017-12-29T22:51:57.845Z,2.34
2017-12-29T22:54:25.414Z,2.14
2017-12-29T22:56:52.968Z,2.17
2017-12-29T22:59:20.507Z,2.21
2017-12-29T23:01:48.067Z,2.21
2017-12-29T23:04:15.634Z,2.30
2017-12-29T23:06:43.186Z,2.31
2017-12-29T23:09:10.769Z,2.42
2017-12-29T23:11:38.292Z,2.42
2017-12-29T23:14:05.812Z,2.37
2017-12-29T23:16:33.376Z,2.18
2017-12-29T23:19:00.964Z,2.34
2017-12-29T23:21:28.511Z,2.26
2017-12-29T23:23:56.302Z,2.43
2017-12-29T23:26:23.840Z,2.47
2017-12-29T23:28:51.415Z,2.35
2017-12-29T23:31:18.966Z,2.39
2017-12-29T23:33:46.510Z,2.33
2017-12-29T23:36:14.056Z,2.57
2017-12-29T23:38:41.611Z,2.58
2017-12-29T23:41:09.150Z,2.32
2017-12-29T23:43:36.762Z,2.66
2017-12-29T23:46:04.275Z,2.58
2017-12-29T23:48:31.868Z,2.44
2017-12-29T23:50:59.405Z,2.09
2017-12-29T23:53:26.945Z,2.38
2017-12-29T23:55:54.470Z,2.50
2017-12-29T23:58:22.008Z,1.82
